sensor_id;sensor_type;location;lat;lon;timestamp;P1;durP1;ratioP1;P2;durP2;ratioP2
55776;SDS011;54079;44.540;18.784;2022-08-16T00:02:02;4.95;;;4.10;;
55776;SDS011;54079;44.540;18.784;2022-08-16T00:04:29;7.65;;;5.35;;
55776;SDS011;54079;44.540;18.784;2022-08-16T00:06:55;6.32;;;5.82;;
55776;SDS011;54079;44.540;18.784;2022-08-16T00:09:21;5.50;;;5.00;;
55776;SDS011;54079;44.540;18.784;2022-08-16T00:11:48;6.05;;;5.45;;
55776;SDS011;54079;44.540;18.784;2022-08-16T00:14:16;5.95;;;5.05;;
55776;SDS011;54079;44.540;18.784;2022-08-16T00:16:44;6.30;;;5.70;;
55776;SDS011;54079;44.540;18.784;2022-08-16T00:19:14;5.88;;;5.38;;
55776;SDS011;54079;44.540;18.784;2022-08-16T00:21:42;5.38;;;4.88;;
55776;SDS011;54079;44.540;18.784;2022-08-16T00:24:09;5.55;;;4.43;;
55776;SDS011;54079;44.540;18.784;2022-08-16T00:26:36;6.78;;;5.82;;
55776;SDS011;54079;44.540;18.784;2022-08-16T00:29:02;5.97;;;5.38;;
55776;SDS011;54079;44.540;18.784;2022-08-16T00:31:30;5.45;;;5.03;;
55776;SDS011;54079;44.540;18.784;2022-08-16T00:33:57;6.10;;;5.50;;
55776;SDS011;54079;44.540;18.784;2022-08-16T00:36:23;6.70;;;6.10;;
55776;SDS011;54079;44.540;18.784;2022-08-16T00:38:49;5.85;;;5.25;;
55776;SDS011;54079;44.540;18.784;2022-08-16T00:41:14;5.88;;;5.28;;
55776;SDS011;54079;44.540;18.784;2022-08-16T00:43:41;6.78;;;6.10;;
55776;SDS011;54079;44.540;18.784;2022-08-16T00:46:19;6.05;;;5.50;;
55776;SDS011;54079;44.540;18.784;2022-08-16T00:48:57;5.55;;;5.07;;
55776;SDS011;54079;44.540;18.784;2022-08-16T00:51:25;6.40;;;5.70;;
55776;SDS011;54079;44.540;18.784;2022-08-16T00:53:52;6.05;;;5.55;;
55776;SDS011;54079;44.540;18.784;2022-08-16T00:56:21;5.80;;;5.30;;
55776;SDS011;54079;44.540;18.784;2022-08-16T00:58:50;5.70;;;5.20;;
55776;SDS011;54079;44.540;18.784;2022-08-16T01:01:16;5.95;;;5.45;;
55776;SDS011;54079;44.540;18.784;2022-08-16T01:03:44;5.85;;;5.20;;
55776;SDS011;54079;44.540;18.784;2022-08-16T01:06:12;6.82;;;6.05;;
55776;SDS011;54079;44.540;18.784;2022-08-16T01:08:40;5.82;;;5.28;;
55776;SDS011;54079;44.540;18.784;2022-08-16T01:11:08;6.28;;;5.72;;
55776;SDS011;54079;44.540;18.784;2022-08-16T01:13:35;6.22;;;5.63;;
55776;SDS011;54079;44.540;18.784;2022-08-16T01:18:43;7.20;;;5.95;;
55776;SDS011;54079;44.540;18.784;2022-08-16T01:21:28;6.10;;;5.57;;
55776;SDS011;54079;44.540;18.784;2022-08-16T01:24:18;6.68;;;5.90;;
55776;SDS011;54079;44.540;18.784;2022-08-16T01:29:37;6.70;;;5.55;;
55776;SDS011;54079;44.540;18.784;2022-08-16T01:32:07;5.95;;;5.35;;
55776;SDS011;54079;44.540;18.784;2022-08-16T01:34:33;6.22;;;5.55;;
55776;SDS011;54079;44.540;18.784;2022-08-16T01:37:03;6.35;;;5.75;;
55776;SDS011;54079;44.540;18.784;2022-08-16T01:39:33;6.80;;;6.10;;
55776;SDS011;54079;44.540;18.784;2022-08-16T01:42:00;7.32;;;6.35;;
55776;SDS011;54079;44.540;18.784;2022-08-16T01:44:28;7.03;;;6.20;;
55776;SDS011;54079;44.540;18.784;2022-08-16T01:46:55;6.47;;;5.88;;
55776;SDS011;54079;44.540;18.784;2022-08-16T01:49:23;6.20;;;5.63;;
55776;SDS011;54079;44.540;18.784;2022-08-16T01:51:56;7.00;;;5.53;;
55776;SDS011;54079;44.540;18.784;2022-08-16T01:54:26;5.65;;;5.15;;
55776;SDS011;54079;44.540;18.784;2022-08-16T01:56:52;6.15;;;5.55;;
55776;SDS011;54079;44.540;18.784;2022-08-16T01:59:18;5.85;;;5.18;;
55776;SDS011;54079;44.540;18.784;2022-08-16T02:01:45;6.38;;;5.78;;
55776;SDS011;54079;44.540;18.784;2022-08-16T02:04:13;5.40;;;4.90;;
55776;SDS011;54079;44.540;18.784;2022-08-16T02:06:39;5.97;;;5.38;;
55776;SDS011;54079;44.540;18.784;2022-08-16T02:09:07;8.43;;;6.70;;
55776;SDS011;54079;44.540;18.784;2022-08-16T02:11:34;7.70;;;5.82;;
55776;SDS011;54079;44.540;18.784;2022-08-16T02:14:02;6.80;;;5.88;;
55776;SDS011;54079;44.540;18.784;2022-08-16T02:16:28;6.28;;;5.68;;
55776;SDS011;54079;44.540;18.784;2022-08-16T02:18:54;6.57;;;5.97;;
55776;SDS011;54079;44.540;18.784;2022-08-16T02:21:20;5.57;;;5.00;;
55776;SDS011;54079;44.540;18.784;2022-08-16T02:23:46;7.22;;;5.88;;
55776;SDS011;54079;44.540;18.784;2022-08-16T02:26:12;7.10;;;5.30;;
55776;SDS011;54079;44.540;18.784;2022-08-16T02:28:39;9.38;;;5.40;;
55776;SDS011;54079;44.540;18.784;2022-08-16T02:31:07;6.45;;;5.80;;
55776;SDS011;54079;44.540;18.784;2022-08-16T02:33:35;6.45;;;5.47;;
55776;SDS011;54079;44.540;18.784;2022-08-16T02:36:01;6.68;;;5.78;;
55776;SDS011;54079;44.540;18.784;2022-08-16T02:38:28;6.22;;;5.60;;
55776;SDS011;54079;44.540;18.784;2022-08-16T02:40:55;5.25;;;4.82;;
55776;SDS011;54079;44.540;18.784;2022-08-16T02:43:26;6.70;;;5.35;;
55776;SDS011;54079;44.540;18.784;2022-08-16T02:48:20;7.05;;;5.38;;
55776;SDS011;54079;44.540;18.784;2022-08-16T02:50:46;6.25;;;5.65;;
55776;SDS011;54079;44.540;18.784;2022-08-16T02:53:12;6.55;;;5.88;;
55776;SDS011;54079;44.540;18.784;2022-08-16T02:55:38;5.88;;;5.30;;
55776;SDS011;54079;44.540;18.784;2022-08-16T02:58:04;7.55;;;5.93;;
55776;SDS011;54079;44.540;18.784;2022-08-16T03:00:30;5.05;;;4.63;;
55776;SDS011;54079;44.540;18.784;2022-08-16T03:02:56;5.80;;;5.30;;
55776;SDS011;54079;44.540;18.784;2022-08-16T03:05:23;9.40;;;5.32;;
55776;SDS011;54079;44.540;18.784;2022-08-16T03:07:49;5.75;;;5.25;;
55776;SDS011;54079;44.540;18.784;2022-08-16T03:10:15;5.25;;;4.85;;
55776;SDS011;54079;44.540;18.784;2022-08-16T03:12:43;5.97;;;5.38;;
55776;SDS011;54079;44.540;18.784;2022-08-16T03:15:11;5.82;;;5.32;;
55776;SDS011;54079;44.540;18.784;2022-08-16T03:17:39;6.32;;;5.63;;
55776;SDS011;54079;44.540;18.784;2022-08-16T03:20:07;5.28;;;4.78;;
55776;SDS011;54079;44.540;18.784;2022-08-16T03:22:37;6.57;;;5.93;;
55776;SDS011;54079;44.540;18.784;2022-08-16T03:25:04;5.93;;;5.40;;
55776;SDS011;54079;44.540;18.784;2022-08-16T03:27:32;6.80;;;5.25;;
55776;SDS011;54079;44.540;18.784;2022-08-16T03:30:04;6.03;;;5.43;;
55776;SDS011;54079;44.540;18.784;2022-08-16T03:32:32;8.10;;;5.60;;
55776;SDS011;54079;44.540;18.784;2022-08-16T03:34:58;7.45;;;6.75;;
55776;SDS011;54079;44.540;18.784;2022-08-16T03:37:24;6.55;;;5.65;;
55776;SDS011;54079;44.540;18.784;2022-08-16T03:39:50;6.53;;;5.15;;
55776;SDS011;54079;44.540;18.784;2022-08-16T03:42:16;5.57;;;4.68;;
55776;SDS011;54079;44.540;18.784;2022-08-16T03:44:42;5.35;;;4.85;;
55776;SDS011;54079;44.540;18.784;2022-08-16T03:47:08;5.63;;;4.70;;
55776;SDS011;54079;44.540;18.784;2022-08-16T03:49:34;6.28;;;4.65;;
55776;SDS011;54079;44.540;18.784;2022-08-16T03:52:00;5.20;;;4.70;;
55776;SDS011;54079;44.540;18.784;2022-08-16T03:54:26;5.60;;;5.07;;
55776;SDS011;54079;44.540;18.784;2022-08-16T03:56:52;5.85;;;5.25;;
55776;SDS011;54079;44.540;18.784;2022-08-16T03:59:18;5.72;;;5.13;;
55776;SDS011;54079;44.540;18.784;2022-08-16T04:01:44;5.43;;;4.35;;
55776;SDS011;54079;44.540;18.784;2022-08-16T04:04:10;7.88;;;5.45;;
55776;SDS011;54079;44.540;18.784;2022-08-16T04:06:36;5.18;;;4.57;;
55776;SDS011;54079;44.540;18.784;2022-08-16T04:09:02;5.90;;;4.72;;
55776;SDS011;54079;44.540;18.784;2022-08-16T04:11:28;6.55;;;4.78;;
55776;SDS011;54079;44.540;18.784;2022-08-16T04:13:54;5.47;;;4.75;;
55776;SDS011;54079;44.540;18.784;2022-08-16T04:16:20;5.05;;;4.65;;
55776;SDS011;54079;44.540;18.784;2022-08-16T04:18:46;6.05;;;4.82;;
55776;SDS011;54079;44.540;18.784;2022-08-16T04:21:13;6.47;;;4.78;;
55776;SDS011;54079;44.540;18.784;2022-08-16T04:23:39;5.53;;;5.03;;
55776;SDS011;54079;44.540;18.784;2022-08-16T04:26:06;5.05;;;4.18;;
55776;SDS011;54079;44.540;18.784;2022-08-16T04:28:32;4.80;;;4.40;;
55776;SDS011;54079;44.540;18.784;2022-08-16T04:30:58;4.95;;;4.30;;
55776;SDS011;54079;44.540;18.784;2022-08-16T04:33:24;4.60;;;4.20;;
55776;SDS011;54079;44.540;18.784;2022-08-16T04:35:51;4.82;;;4.32;;
55776;SDS011;54079;44.540;18.784;2022-08-16T04:38:18;4.82;;;4.40;;
55776;SDS011;54079;44.540;18.784;2022-08-16T04:40:44;5.15;;;4.65;;
55776;SDS011;54079;44.540;18.784;2022-08-16T04:43:12;4.68;;;4.28;;
55776;SDS011;54079;44.540;18.784;2022-08-16T04:45:39;5.18;;;4.53;;
55776;SDS011;54079;44.540;18.784;2022-08-16T04:48:07;6.95;;;4.63;;
55776;SDS011;54079;44.540;18.784;2022-08-16T04:50:34;4.47;;;4.07;;
55776;SDS011;54079;44.540;18.784;2022-08-16T04:53:00;4.72;;;4.30;;
55776;SDS011;54079;44.540;18.784;2022-08-16T04:55:27;4.28;;;3.88;;
55776;SDS011;54079;44.540;18.784;2022-08-16T04:57:54;4.38;;;3.97;;
55776;SDS011;54079;44.540;18.784;2022-08-16T05:00:22;5.72;;;4.80;;
55776;SDS011;54079;44.540;18.784;2022-08-16T05:02:51;4.57;;;4.20;;
55776;SDS011;54079;44.540;18.784;2022-08-16T05:05:18;5.05;;;4.07;;
55776;SDS011;54079;44.540;18.784;2022-08-16T05:07:45;7.13;;;3.95;;
55776;SDS011;54079;44.540;18.784;2022-08-16T05:10:11;4.80;;;4.28;;
55776;SDS011;54079;44.540;18.784;2022-08-16T05:12:38;7.38;;;4.10;;
55776;SDS011;54079;44.540;18.784;2022-08-16T05:15:04;4.13;;;3.67;;
55776;SDS011;54079;44.540;18.784;2022-08-16T05:17:32;4.32;;;3.95;;
55776;SDS011;54079;44.540;18.784;2022-08-16T05:19:58;5.53;;;4.72;;
55776;SDS011;54079;44.540;18.784;2022-08-16T05:22:24;4.63;;;4.20;;
55776;SDS011;54079;44.540;18.784;2022-08-16T05:24:51;4.97;;;4.13;;
55776;SDS011;54079;44.540;18.784;2022-08-16T05:27:17;6.47;;;3.67;;
55776;SDS011;54079;44.540;18.784;2022-08-16T05:29:43;4.88;;;4.40;;
55776;SDS011;54079;44.540;18.784;2022-08-16T05:32:09;4.78;;;3.63;;
55776;SDS011;54079;44.540;18.784;2022-08-16T05:34:35;4.40;;;3.40;;
55776;SDS011;54079;44.540;18.784;2022-08-16T05:37:01;4.60;;;4.20;;
55776;SDS011;54079;44.540;18.784;2022-08-16T05:39:28;4.88;;;3.55;;
55776;SDS011;54079;44.540;18.784;2022-08-16T05:41:54;4.50;;;3.85;;
55776;SDS011;54079;44.540;18.784;2022-08-16T05:44:21;4.25;;;3.63;;
55776;SDS011;54079;44.540;18.784;2022-08-16T05:46:48;4.28;;;3.95;;
55776;SDS011;54079;44.540;18.784;2022-08-16T05:49:15;4.65;;;3.83;;
55776;SDS011;54079;44.540;18.784;2022-08-16T05:51:43;4.03;;;3.72;;
55776;SDS011;54079;44.540;18.784;2022-08-16T05:54:11;3.88;;;3.58;;
55776;SDS011;54079;44.540;18.784;2022-08-16T05:56:41;4.03;;;3.70;;
55776;SDS011;54079;44.540;18.784;2022-08-16T05:59:10;3.50;;;3.20;;
55776;SDS011;54079;44.540;18.784;2022-08-16T06:01:36;4.00;;;3.05;;
55776;SDS011;54079;44.540;18.784;2022-08-16T06:04:03;3.20;;;3.00;;
55776;SDS011;54079;44.540;18.784;2022-08-16T06:06:30;4.88;;;3.15;;
55776;SDS011;54079;44.540;18.784;2022-08-16T06:08:56;3.60;;;3.30;;
55776;SDS011;54079;44.540;18.784;2022-08-16T06:11:22;5.20;;;3.70;;
55776;SDS011;54079;44.540;18.784;2022-08-16T06:13:48;3.25;;;3.05;;
55776;SDS011;54079;44.540;18.784;2022-08-16T06:16:14;3.22;;;3.03;;
55776;SDS011;54079;44.540;18.784;2022-08-16T06:18:40;3.15;;;2.95;;
55776;SDS011;54079;44.540;18.784;2022-08-16T06:21:09;2.97;;;2.80;;
55776;SDS011;54079;44.540;18.784;2022-08-16T06:23:36;5.20;;;3.03;;
55776;SDS011;54079;44.540;18.784;2022-08-16T06:26:02;3.05;;;2.80;;
55776;SDS011;54079;44.540;18.784;2022-08-16T06:28:29;3.00;;;2.80;;
55776;SDS011;54079;44.540;18.784;2022-08-16T06:30:56;2.95;;;2.70;;
55776;SDS011;54079;44.540;18.784;2022-08-16T06:33:22;3.47;;;2.90;;
55776;SDS011;54079;44.540;18.784;2022-08-16T06:35:49;3.10;;;2.80;;
55776;SDS011;54079;44.540;18.784;2022-08-16T06:38:16;5.82;;;3.60;;
55776;SDS011;54079;44.540;18.784;2022-08-16T06:40:42;2.78;;;2.58;;
55776;SDS011;54079;44.540;18.784;2022-08-16T06:43:08;4.43;;;2.83;;
55776;SDS011;54079;44.540;18.784;2022-08-16T06:45:34;4.35;;;4.05;;
55776;SDS011;54079;44.540;18.784;2022-08-16T06:48:03;3.33;;;3.13;;
55776;SDS011;54079;44.540;18.784;2022-08-16T06:50:29;3.60;;;3.30;;
55776;SDS011;54079;44.540;18.784;2022-08-16T06:52:56;4.07;;;3.78;;
55776;SDS011;54079;44.540;18.784;2022-08-16T06:55:24;3.38;;;3.05;;
55776;SDS011;54079;44.540;18.784;2022-08-16T06:57:50;7.32;;;3.83;;
55776;SDS011;54079;44.540;18.784;2022-08-16T07:00:17;6.35;;;3.42;;
55776;SDS011;54079;44.540;18.784;2022-08-16T07:02:43;3.90;;;3.60;;
55776;SDS011;54079;44.540;18.784;2022-08-16T07:05:10;3.65;;;3.33;;
55776;SDS011;54079;44.540;18.784;2022-08-16T07:07:38;3.78;;;3.45;;
55776;SDS011;54079;44.540;18.784;2022-08-16T07:10:06;3.50;;;3.20;;
55776;SDS011;54079;44.540;18.784;2022-08-16T07:12:33;5.28;;;3.63;;
55776;SDS011;54079;44.540;18.784;2022-08-16T07:15:01;5.10;;;3.33;;
55776;SDS011;54079;44.540;18.784;2022-08-16T07:17:28;4.20;;;3.90;;
55776;SDS011;54079;44.540;18.784;2022-08-16T07:19:56;6.05;;;3.80;;
55776;SDS011;54079;44.540;18.784;2022-08-16T07:22:22;4.30;;;3.90;;
55776;SDS011;54079;44.540;18.784;2022-08-16T07:24:49;6.00;;;3.55;;
55776;SDS011;54079;44.540;18.784;2022-08-16T07:27:15;6.10;;;3.60;;
55776;SDS011;54079;44.540;18.784;2022-08-16T07:29:41;4.03;;;3.72;;
55776;SDS011;54079;44.540;18.784;2022-08-16T07:32:07;5.65;;;3.38;;
55776;SDS011;54079;44.540;18.784;2022-08-16T07:34:34;5.30;;;3.38;;
55776;SDS011;54079;44.540;18.784;2022-08-16T07:37:02;3.70;;;3.40;;
55776;SDS011;54079;44.540;18.784;2022-08-16T07:39:32;3.33;;;3.03;;
55776;SDS011;54079;44.540;18.784;2022-08-16T07:41:58;3.65;;;3.35;;
55776;SDS011;54079;44.540;18.784;2022-08-16T07:44:24;5.72;;;5.22;;
55776;SDS011;54079;44.540;18.784;2022-08-16T07:46:50;5.43;;;5.00;;
55776;SDS011;54079;44.540;18.784;2022-08-16T07:49:16;8.27;;;7.43;;
55776;SDS011;54079;44.540;18.784;2022-08-16T07:51:42;12.05;;;10.93;;
55776;SDS011;54079;44.540;18.784;2022-08-16T07:54:08;8.35;;;7.65;;
55776;SDS011;54079;44.540;18.784;2022-08-16T07:56:35;7.82;;;7.13;;
55776;SDS011;54079;44.540;18.784;2022-08-16T07:59:02;9.23;;;8.55;;
55776;SDS011;54079;44.540;18.784;2022-08-16T08:01:28;7.47;;;6.78;;
55776;SDS011;54079;44.540;18.784;2022-08-16T08:03:55;9.25;;;8.40;;
55776;SDS011;54079;44.540;18.784;2022-08-16T08:06:22;5.75;;;5.35;;
55776;SDS011;54079;44.540;18.784;2022-08-16T08:08:52;13.05;;;11.93;;
55776;SDS011;54079;44.540;18.784;2022-08-16T08:11:20;10.02;;;9.32;;
55776;SDS011;54079;44.540;18.784;2022-08-16T08:13:48;11.55;;;10.75;;
55776;SDS011;54079;44.540;18.784;2022-08-16T08:18:45;11.80;;;10.95;;
55776;SDS011;54079;44.540;18.784;2022-08-16T08:21:12;9.05;;;7.13;;
55776;SDS011;54079;44.540;18.784;2022-08-16T08:23:38;20.90;;;19.25;;
55776;SDS011;54079;44.540;18.784;2022-08-16T08:26:06;7.25;;;6.60;;
55776;SDS011;54079;44.540;18.784;2022-08-16T08:28:32;10.68;;;9.77;;
55776;SDS011;54079;44.540;18.784;2022-08-16T08:30:58;18.45;;;17.10;;
55776;SDS011;54079;44.540;18.784;2022-08-16T08:33:24;13.20;;;12.20;;
55776;SDS011;54079;44.540;18.784;2022-08-16T08:35:50;13.35;;;12.38;;
55776;SDS011;54079;44.540;18.784;2022-08-16T08:38:17;14.05;;;11.57;;
55776;SDS011;54079;44.540;18.784;2022-08-16T08:40:43;14.32;;;12.80;;
55776;SDS011;54079;44.540;18.784;2022-08-16T08:43:09;12.90;;;11.88;;
55776;SDS011;54079;44.540;18.784;2022-08-16T08:45:37;12.38;;;11.40;;
55776;SDS011;54079;44.540;18.784;2022-08-16T08:48:06;17.90;;;16.58;;
55776;SDS011;54079;44.540;18.784;2022-08-16T08:50:32;12.25;;;11.35;;
55776;SDS011;54079;44.540;18.784;2022-08-16T08:52:58;10.05;;;7.57;;
55776;SDS011;54079;44.540;18.784;2022-08-16T08:55:25;13.60;;;12.30;;
55776;SDS011;54079;44.540;18.784;2022-08-16T08:57:52;11.27;;;10.43;;
55776;SDS011;54079;44.540;18.784;2022-08-16T09:00:21;7.72;;;7.13;;
55776;SDS011;54079;44.540;18.784;2022-08-16T09:02:49;7.03;;;6.38;;
55776;SDS011;54079;44.540;18.784;2022-08-16T09:05:15;7.75;;;4.78;;
55776;SDS011;54079;44.540;18.784;2022-08-16T09:07:43;6.32;;;4.97;;
55776;SDS011;54079;44.540;18.784;2022-08-16T09:10:10;5.03;;;4.60;;
55776;SDS011;54079;44.540;18.784;2022-08-16T09:12:36;6.68;;;4.95;;
55776;SDS011;54079;44.540;18.784;2022-08-16T09:15:05;5.32;;;4.60;;
55776;SDS011;54079;44.540;18.784;2022-08-16T09:17:32;5.25;;;4.63;;
55776;SDS011;54079;44.540;18.784;2022-08-16T09:19:58;8.55;;;6.97;;
55776;SDS011;54079;44.540;18.784;2022-08-16T09:22:24;10.55;;;9.57;;
55776;SDS011;54079;44.540;18.784;2022-08-16T09:24:52;9.43;;;8.02;;
55776;SDS011;54079;44.540;18.784;2022-08-16T09:27:18;9.18;;;6.72;;
55776;SDS011;54079;44.540;18.784;2022-08-16T09:29:45;8.82;;;6.25;;
55776;SDS011;54079;44.540;18.784;2022-08-16T09:32:12;9.20;;;7.32;;
55776;SDS011;54079;44.540;18.784;2022-08-16T09:34:38;6.10;;;5.57;;
55776;SDS011;54079;44.540;18.784;2022-08-16T09:37:04;6.65;;;6.07;;
55776;SDS011;54079;44.540;18.784;2022-08-16T09:39:30;7.32;;;5.85;;
55776;SDS011;54079;44.540;18.784;2022-08-16T09:41:56;8.02;;;5.78;;
55776;SDS011;54079;44.540;18.784;2022-08-16T09:44:26;9.75;;;5.65;;
55776;SDS011;54079;44.540;18.784;2022-08-16T09:46:53;8.38;;;5.60;;
55776;SDS011;54079;44.540;18.784;2022-08-16T09:49:20;8.48;;;5.43;;
55776;SDS011;54079;44.540;18.784;2022-08-16T09:51:50;10.07;;;5.57;;
55776;SDS011;54079;44.540;18.784;2022-08-16T09:54:23;6.20;;;4.75;;
55776;SDS011;54079;44.540;18.784;2022-08-16T09:56:50;6.75;;;6.10;;
55776;SDS011;54079;44.540;18.784;2022-08-16T09:59:16;7.10;;;5.60;;
55776;SDS011;54079;44.540;18.784;2022-08-16T10:01:43;9.13;;;8.02;;
55776;SDS011;54079;44.540;18.784;2022-08-16T10:04:09;10.25;;;8.52;;
55776;SDS011;54079;44.540;18.784;2022-08-16T10:06:36;9.05;;;7.88;;
55776;SDS011;54079;44.540;18.784;2022-08-16T10:09:05;10.32;;;7.38;;
55776;SDS011;54079;44.540;18.784;2022-08-16T10:11:33;8.32;;;6.78;;
55776;SDS011;54079;44.540;18.784;2022-08-16T10:14:18;9.45;;;7.15;;
55776;SDS011;54079;44.540;18.784;2022-08-16T10:16:45;6.72;;;6.13;;
55776;SDS011;54079;44.540;18.784;2022-08-16T10:19:11;14.43;;;7.32;;
55776;SDS011;54079;44.540;18.784;2022-08-16T10:21:38;11.07;;;7.53;;
55776;SDS011;54079;44.540;18.784;2022-08-16T10:24:05;8.80;;;7.25;;
55776;SDS011;54079;44.540;18.784;2022-08-16T10:26:31;9.10;;;6.43;;
55776;SDS011;54079;44.540;18.784;2022-08-16T10:28:58;13.77;;;12.10;;
55776;SDS011;54079;44.540;18.784;2022-08-16T10:31:25;16.88;;;8.27;;
55776;SDS011;54079;44.540;18.784;2022-08-16T10:33:51;13.10;;;9.48;;
55776;SDS011;54079;44.540;18.784;2022-08-16T10:36:18;9.50;;;8.48;;
55776;SDS011;54079;44.540;18.784;2022-08-16T10:38:44;8.60;;;7.72;;
55776;SDS011;54079;44.540;18.784;2022-08-16T10:41:10;10.70;;;8.13;;
55776;SDS011;54079;44.540;18.784;2022-08-16T10:43:37;9.43;;;8.48;;
55776;SDS011;54079;44.540;18.784;2022-08-16T10:46:05;7.72;;;5.97;;
55776;SDS011;54079;44.540;18.784;2022-08-16T10:48:36;9.00;;;8.20;;
55776;SDS011;54079;44.540;18.784;2022-08-16T10:51:04;7.75;;;5.68;;
55776;SDS011;54079;44.540;18.784;2022-08-16T10:53:31;7.55;;;6.85;;
55776;SDS011;54079;44.540;18.784;2022-08-16T10:55:58;4.85;;;4.40;;
55776;SDS011;54079;44.540;18.784;2022-08-16T10:58:25;6.63;;;6.07;;
55776;SDS011;54079;44.540;18.784;2022-08-16T11:00:51;8.50;;;6.18;;
55776;SDS011;54079;44.540;18.784;2022-08-16T11:03:18;5.80;;;4.65;;
55776;SDS011;54079;44.540;18.784;2022-08-16T11:05:44;7.13;;;4.38;;
55776;SDS011;54079;44.540;18.784;2022-08-16T11:08:10;6.50;;;5.90;;
55776;SDS011;54079;44.540;18.784;2022-08-16T11:10:38;5.20;;;4.63;;
55776;SDS011;54079;44.540;18.784;2022-08-16T11:13:07;4.90;;;4.40;;
55776;SDS011;54079;44.540;18.784;2022-08-16T11:15:35;4.80;;;4.40;;
55776;SDS011;54079;44.540;18.784;2022-08-16T11:18:03;10.80;;;9.88;;
55776;SDS011;54079;44.540;18.784;2022-08-16T11:20:30;10.95;;;9.93;;
55776;SDS011;54079;44.540;18.784;2022-08-16T11:22:56;9.38;;;8.57;;
55776;SDS011;54079;44.540;18.784;2022-08-16T11:25:24;6.82;;;4.85;;
55776;SDS011;54079;44.540;18.784;2022-08-16T11:27:53;6.57;;;6.03;;
55776;SDS011;54079;44.540;18.784;2022-08-16T11:30:20;9.98;;;9.07;;
55776;SDS011;54079;44.540;18.784;2022-08-16T11:32:47;8.43;;;7.57;;
55776;SDS011;54079;44.540;18.784;2022-08-16T11:35:14;6.78;;;5.93;;
55776;SDS011;54079;44.540;18.784;2022-08-16T11:37:44;5.85;;;5.35;;
55776;SDS011;54079;44.540;18.784;2022-08-16T11:40:15;4.78;;;4.38;;
55776;SDS011;54079;44.540;18.784;2022-08-16T11:42:41;5.70;;;5.07;;
55776;SDS011;54079;44.540;18.784;2022-08-16T11:45:07;4.75;;;4.43;;
55776;SDS011;54079;44.540;18.784;2022-08-16T11:47:35;3.28;;;3.00;;
55776;SDS011;54079;44.540;18.784;2022-08-16T11:50:02;4.32;;;3.92;;
55776;SDS011;54079;44.540;18.784;2022-08-16T11:52:32;3.70;;;3.40;;
55776;SDS011;54079;44.540;18.784;2022-08-16T11:54:59;4.28;;;3.67;;
55776;SDS011;54079;44.540;18.784;2022-08-16T11:57:25;3.00;;;2.58;;
55776;SDS011;54079;44.540;18.784;2022-08-16T11:59:51;3.45;;;3.20;;
55776;SDS011;54079;44.540;18.784;2022-08-16T12:02:16;5.53;;;3.40;;
55776;SDS011;54079;44.540;18.784;2022-08-16T12:04:42;3.72;;;2.95;;
55776;SDS011;54079;44.540;18.784;2022-08-16T12:07:09;3.83;;;3.35;;
55776;SDS011;54079;44.540;18.784;2022-08-16T12:09:35;2.97;;;2.60;;
55776;SDS011;54079;44.540;18.784;2022-08-16T12:12:02;3.33;;;3.03;;
55776;SDS011;54079;44.540;18.784;2022-08-16T12:14:29;4.55;;;3.78;;
55776;SDS011;54079;44.540;18.784;2022-08-16T12:16:56;3.38;;;2.97;;
55776;SDS011;54079;44.540;18.784;2022-08-16T12:19:23;3.00;;;2.80;;
55776;SDS011;54079;44.540;18.784;2022-08-16T12:21:50;5.32;;;2.67;;
55776;SDS011;54079;44.540;18.784;2022-08-16T12:24:16;4.95;;;2.63;;
55776;SDS011;54079;44.540;18.784;2022-08-16T12:26:42;4.13;;;2.85;;
55776;SDS011;54079;44.540;18.784;2022-08-16T12:29:08;3.72;;;2.80;;
55776;SDS011;54079;44.540;18.784;2022-08-16T12:31:34;4.50;;;2.75;;
55776;SDS011;54079;44.540;18.784;2022-08-16T12:34:00;3.92;;;2.45;;
55776;SDS011;54079;44.540;18.784;2022-08-16T12:36:27;4.82;;;2.90;;
55776;SDS011;54079;44.540;18.784;2022-08-16T12:38:53;3.28;;;2.60;;
55776;SDS011;54079;44.540;18.784;2022-08-16T12:41:19;5.45;;;2.97;;
55776;SDS011;54079;44.540;18.784;2022-08-16T12:43:46;3.03;;;2.42;;
55776;SDS011;54079;44.540;18.784;2022-08-16T12:46:12;4.40;;;2.67;;
55776;SDS011;54079;44.540;18.784;2022-08-16T12:48:39;2.80;;;2.60;;
55776;SDS011;54079;44.540;18.784;2022-08-16T12:51:24;4.30;;;2.90;;
55776;SDS011;54079;44.540;18.784;2022-08-16T12:53:56;4.32;;;3.33;;
55776;SDS011;54079;44.540;18.784;2022-08-16T12:56:25;7.90;;;3.85;;
55776;SDS011;54079;44.540;18.784;2022-08-16T12:58:53;5.05;;;3.83;;
55776;SDS011;54079;44.540;18.784;2022-08-16T13:01:23;3.40;;;3.10;;
55776;SDS011;54079;44.540;18.784;2022-08-16T13:03:51;4.70;;;4.20;;
55776;SDS011;54079;44.540;18.784;2022-08-16T13:06:20;3.28;;;2.58;;
55776;SDS011;54079;44.540;18.784;2022-08-16T13:08:47;4.43;;;3.42;;
55776;SDS011;54079;44.540;18.784;2022-08-16T13:11:15;4.05;;;3.10;;
55776;SDS011;54079;44.540;18.784;2022-08-16T13:13:49;6.68;;;5.97;;
55776;SDS011;54079;44.540;18.784;2022-08-16T13:16:15;5.95;;;5.35;;
55776;SDS011;54079;44.540;18.784;2022-08-16T13:18:41;6.35;;;4.00;;
55776;SDS011;54079;44.540;18.784;2022-08-16T13:21:07;5.15;;;3.67;;
55776;SDS011;54079;44.540;18.784;2022-08-16T13:23:34;3.50;;;3.20;;
55776;SDS011;54079;44.540;18.784;2022-08-16T13:26:03;2.92;;;2.72;;
55776;SDS011;54079;44.540;18.784;2022-08-16T13:28:30;4.03;;;3.63;;
55776;SDS011;54079;44.540;18.784;2022-08-16T13:30:56;4.05;;;2.75;;
55776;SDS011;54079;44.540;18.784;2022-08-16T13:33:25;3.65;;;2.97;;
55776;SDS011;54079;44.540;18.784;2022-08-16T13:36:01;5.05;;;4.03;;
55776;SDS011;54079;44.540;18.784;2022-08-16T13:38:31;14.73;;;13.23;;
55776;SDS011;54079;44.540;18.784;2022-08-16T13:40:58;11.13;;;10.13;;
55776;SDS011;54079;44.540;18.784;2022-08-16T13:43:27;11.10;;;10.10;;
55776;SDS011;54079;44.540;18.784;2022-08-16T13:45:55;5.25;;;4.85;;
55776;SDS011;54079;44.540;18.784;2022-08-16T13:48:25;5.80;;;4.50;;
55776;SDS011;54079;44.540;18.784;2022-08-16T13:50:54;4.00;;;2.90;;
55776;SDS011;54079;44.540;18.784;2022-08-16T13:53:21;9.48;;;8.57;;
55776;SDS011;54079;44.540;18.784;2022-08-16T13:55:49;7.25;;;6.03;;
55776;SDS011;54079;44.540;18.784;2022-08-16T13:58:15;6.88;;;4.75;;
55776;SDS011;54079;44.540;18.784;2022-08-16T14:00:41;8.65;;;5.57;;
55776;SDS011;54079;44.540;18.784;2022-08-16T14:03:07;4.55;;;4.15;;
55776;SDS011;54079;44.540;18.784;2022-08-16T14:05:33;4.05;;;3.75;;
55776;SDS011;54079;44.540;18.784;2022-08-16T14:07:59;5.68;;;4.90;;
55776;SDS011;54079;44.540;18.784;2022-08-16T14:10:25;7.53;;;6.28;;
55776;SDS011;54079;44.540;18.784;2022-08-16T14:12:51;3.83;;;3.40;;
55776;SDS011;54079;44.540;18.784;2022-08-16T14:15:17;5.90;;;4.05;;
55776;SDS011;54079;44.540;18.784;2022-08-16T14:17:45;4.80;;;3.20;;
55776;SDS011;54079;44.540;18.784;2022-08-16T14:20:11;4.82;;;3.72;;
55776;SDS011;54079;44.540;18.784;2022-08-16T14:22:38;4.20;;;3.72;;
55776;SDS011;54079;44.540;18.784;2022-08-16T14:25:09;4.32;;;3.92;;
55776;SDS011;54079;44.540;18.784;2022-08-16T14:27:38;3.03;;;2.67;;
55776;SDS011;54079;44.540;18.784;2022-08-16T14:30:05;3.63;;;2.50;;
55776;SDS011;54079;44.540;18.784;2022-08-16T14:32:34;4.18;;;2.90;;
55776;SDS011;54079;44.540;18.784;2022-08-16T14:35:05;3.47;;;3.17;;
55776;SDS011;54079;44.540;18.784;2022-08-16T14:37:34;3.38;;;3.08;;
55776;SDS011;54079;44.540;18.784;2022-08-16T14:40:02;3.75;;;3.45;;
55776;SDS011;54079;44.540;18.784;2022-08-16T14:42:30;5.53;;;4.38;;
55776;SDS011;54079;44.540;18.784;2022-08-16T14:44:56;4.97;;;4.53;;